Time;durP1;ratioP1;P1;durP2;ratioP2;P2;SDS_P1;SDS_P2;PMS_P1;PMS_P2;Temp;Humidity;BMP_temperature;BMP_pressure;BME280_temperature;BME280_humidity;BME280_pressure;Samples;Min_cycle;Max_cycle;Signal;HPM_P1;HPM_P2
2022/08/15 00:00:00;;;;;;;8.45;5.82;;;;;;;;;;4984652;28;20221;-61
2022/08/15 00:02:25;;;;;;;7.95;5.50;;;;;;;;;;5001554;28;20266;-60
2022/08/15 00:04:51;;;;;;;9.13;5.68;;;;;;;;;;5002319;28;20282;-61
2022/08/15 00:07:16;;;;;;;6.35;5.45;;;;;;;;;;4996429;28;20212;-60
2022/08/15 00:09:42;;;;;;;7.03;5.55;;;;;;;;;;4982316;28;20276;-60
2022/08/15 00:12:07;;;;;;;6.78;5.70;;;;;;;;;;4973920;28;20205;-61
2022/08/15 00:14:33;;;;;;;8.68;5.55;;;;;;;;;;4979533;28;20216;-60
2022/08/15 00:16:59;;;;;;;7.68;5.68;;;;;;;;;;5001776;28;20691;-60
2022/08/15 00:19:29;;;;;;;8.02;5.70;;;;;;;;;;4989295;28;20209;-61
2022/08/15 00:21:58;;;;;;;7.47;5.25;;;;;;;;;;5001995;28;20806;-60
2022/08/15 00:24:25;;;;;;;7.38;5.70;;;;;;;;;;5000499;28;20229;-60
2022/08/15 00:26:51;;;;;;;10.48;5.95;;;;;;;;;;4989824;28;20209;-60
2022/08/15 00:29:16;;;;;;;7.95;5.63;;;;;;;;;;4978543;28;20300;-61
2022/08/15 00:31:42;;;;;;;7.60;5.47;;;;;;;;;;4975353;28;20253;-61
2022/08/15 00:34:07;;;;;;;9.30;5.88;;;;;;;;;;4973811;28;20227;-61
2022/08/15 00:36:32;;;;;;;7.97;5.97;;;;;;;;;;4980687;28;20500;-60
2022/08/15 00:38:58;;;;;;;6.22;5.60;;;;;;;;;;4986963;28;20216;-61
2022/08/15 00:41:39;;;;;;;7.18;6.07;;;;;;;;;;5005838;28;20666;-61
2022/08/15 00:44:07;;;;;;;7.50;6.03;;;;;;;;;;5005730;28;20232;-60
2022/08/15 00:46:32;;;;;;;7.18;5.38;;;;;;;;;;4997574;28;20224;-60
2022/08/15 00:48:58;;;;;;;8.45;6.10;;;;;;;;;;4985765;28;20560;-61
2022/08/15 00:51:23;;;;;;;8.27;6.35;;;;;;;;;;4988213;28;20262;-60
2022/08/15 00:53:49;;;;;;;6.45;5.53;;;;;;;;;;4998436;28;20215;-61
2022/08/15 00:56:15;;;;;;;9.27;6.03;;;;;;;;;;4996416;28;20583;-61
2022/08/15 00:58:40;;;;;;;7.93;6.32;;;;;;;;;;4997510;28;20553;-60
2022/08/15 01:01:06;;;;;;;8.57;6.20;;;;;;;;;;4991734;28;20648;-61
2022/08/15 01:03:33;;;;;;;7.65;6.10;;;;;;;;;;4993371;28;20271;-60
2022/08/15 01:05:59;;;;;;;7.57;5.80;;;;;;;;;;5005462;28;20779;-60
2022/08/15 01:08:26;;;;;;;6.82;6.13;;;;;;;;;;5005294;28;20220;-60
2022/08/15 01:10:52;;;;;;;7.45;6.75;;;;;;;;;;5005306;28;20254;-60
2022/08/15 01:13:17;;;;;;;8.05;6.38;;;;;;;;;;4992723;28;20260;-60
2022/08/15 01:15:42;;;;;;;8.80;6.47;;;;;;;;;;4979703;28;20639;-60
2022/08/15 01:18:08;;;;;;;9.32;6.35;;;;;;;;;;4977123;28;20220;-61
2022/08/15 01:20:33;;;;;;;9.20;6.80;;;;;;;;;;4978384;28;20685;-60
2022/08/15 01:23:09;;;;;;;7.10;6.18;;;;;;;;;;5001893;28;20224;-60
2022/08/15 01:25:43;;;;;;;9.18;6.68;;;;;;;;;;5004308;28;20829;-60
2022/08/15 01:28:10;;;;;;;8.73;6.65;;;;;;;;;;5003379;28;20278;-60
2022/08/15 01:30:44;;;;;;;7.82;6.55;;;;;;;;;;5005015;28;20703;-60
2022/08/15 01:33:09;;;;;;;7.85;6.00;;;;;;;;;;5004456;28;20219;-61
2022/08/15 01:35:35;;;;;;;8.93;6.43;;;;;;;;;;5004127;28;20227;-60
2022/08/15 01:38:01;;;;;;;6.80;6.10;;;;;;;;;;4992774;28;20201;-60
2022/08/15 01:40:34;;;;;;;6.97;6.10;;;;;;;;;;4995010;28;20208;-61
2022/08/15 01:42:59;;;;;;;7.93;6.18;;;;;;;;;;4996698;28;20743;-60
2022/08/15 01:45:26;;;;;;;9.38;6.30;;;;;;;;;;5001958;28;20212;-60
2022/08/15 01:47:57;;;;;;;6.93;6.10;;;;;;;;;;5002384;28;20248;-60
2022/08/15 01:50:23;;;;;;;7.32;5.90;;;;;;;;;;5004149;28;20240;-60
2022/08/15 01:52:53;;;;;;;7.50;5.78;;;;;;;;;;5003830;28;20696;-60
2022/08/15 01:55:20;;;;;;;7.18;5.68;;;;;;;;;;5004239;28;20255;-60
2022/08/15 01:57:45;;;;;;;7.00;6.30;;;;;;;;;;5004157;28;20212;-61
2022/08/15 02:00:11;;;;;;;6.72;5.80;;;;;;;;;;4992122;28;20442;-60
2022/08/15 02:02:37;;;;;;;7.53;6.10;;;;;;;;;;4977411;28;20272;-60
2022/08/15 02:05:02;;;;;;;7.13;5.95;;;;;;;;;;4990620;28;20227;-61
2022/08/15 02:07:28;;;;;;;6.90;6.20;;;;;;;;;;4980710;28;20332;-61
2022/08/15 02:09:54;;;;;;;6.72;5.75;;;;;;;;;;4985269;28;20232;-60
2022/08/15 02:12:20;;;;;;;8.32;5.78;;;;;;;;;;4984876;28;20256;-61
2022/08/15 02:14:45;;;;;;;6.57;5.68;;;;;;;;;;5003120;28;20751;-60
2022/08/15 02:17:11;;;;;;;8.98;6.22;;;;;;;;;;5004314;28;20289;-60
2022/08/15 02:19:38;;;;;;;7.95;6.10;;;;;;;;;;4989857;28;20205;-60
2022/08/15 02:22:04;;;;;;;7.35;5.88;;;;;;;;;;5000948;28;20660;-60
2022/08/15 02:24:29;;;;;;;7.60;6.35;;;;;;;;;;4986224;28;20217;-60
2022/08/15 02:26:55;;;;;;;11.68;6.50;;;;;;;;;;4977433;28;20221;-60
2022/08/15 02:29:21;;;;;;;8.48;6.20;;;;;;;;;;4977471;28;20683;-60
2022/08/15 02:31:47;;;;;;;6.65;5.70;;;;;;;;;;5003915;28;20679;-60
2022/08/15 02:34:14;;;;;;;8.60;5.95;;;;;;;;;;5003142;28;20221;-61
2022/08/15 02:36:39;;;;;;;7.00;5.80;;;;;;;;;;5004316;28;20306;-60
2022/08/15 02:39:05;;;;;;;7.00;6.20;;;;;;;;;;4997038;28;20236;-61
2022/08/15 02:41:32;;;;;;;8.18;6.57;;;;;;;;;;5003537;28;20267;-60
2022/08/15 02:43:57;;;;;;;7.32;6.05;;;;;;;;;;5002551;28;20263;-60
2022/08/15 02:46:23;;;;;;;7.18;5.50;;;;;;;;;;4988901;28;20403;-60
2022/08/15 02:48:48;;;;;;;8.35;5.95;;;;;;;;;;4975950;28;20348;-61
2022/08/15 02:51:14;;;;;;;9.57;7.18;;;;;;;;;;4976001;28;20213;-61
2022/08/15 02:53:40;;;;;;;6.93;5.43;;;;;;;;;;4983596;28;20274;-60
2022/08/15 02:56:06;;;;;;;7.38;6.38;;;;;;;;;;5000762;28;20310;-60
2022/08/15 02:58:33;;;;;;;8.43;5.95;;;;;;;;;;5003314;28;20632;-60
2022/08/15 03:00:58;;;;;;;7.15;6.20;;;;;;;;;;4990771;28;20228;-60
2022/08/15 03:03:26;;;;;;;7.80;5.88;;;;;;;;;;4983023;28;20275;-61
2022/08/15 03:05:51;;;;;;;7.80;6.13;;;;;;;;;;5003549;28;20630;-60
2022/08/15 03:08:16;;;;;;;7.63;6.82;;;;;;;;;;4997689;28;20436;-61
2022/08/15 03:10:42;;;;;;;8.95;7.25;;;;;;;;;;4994668;28;20250;-60
2022/08/15 03:13:09;;;;;;;9.38;7.40;;;;;;;;;;4994796;28;20212;-61
2022/08/15 03:15:42;;;;;;;10.38;7.93;;;;;;;;;;4988676;28;20213;-61
2022/08/15 03:18:08;;;;;;;8.75;7.38;;;;;;;;;;4982915;28;20213;-61
2022/08/15 03:20:35;;;;;;;10.00;7.30;;;;;;;;;;4984137;28;20235;-61
2022/08/15 03:23:00;;;;;;;9.07;8.07;;;;;;;;;;5002787;28;20665;-60
2022/08/15 03:25:26;;;;;;;10.30;8.23;;;;;;;;;;5002143;28;20219;-60
2022/08/15 03:27:52;;;;;;;10.50;7.82;;;;;;;;;;5003317;28;20216;-60
2022/08/15 03:30:17;;;;;;;9.38;8.38;;;;;;;;;;4999417;28;20220;-60
2022/08/15 03:32:44;;;;;;;10.10;7.85;;;;;;;;;;4989143;28;20266;-61
2022/08/15 03:35:09;;;;;;;8.98;7.93;;;;;;;;;;4983062;28;20440;-61
2022/08/15 03:37:34;;;;;;;8.90;7.38;;;;;;;;;;4978032;28;20221;-60
2022/08/15 03:40:00;;;;;;;8.77;7.22;;;;;;;;;;5002947;28;20208;-60
2022/08/15 03:42:27;;;;;;;8.88;7.43;;;;;;;;;;5002395;28;20571;-60
2022/08/15 03:44:52;;;;;;;10.10;8.48;;;;;;;;;;5002401;28;20644;-60
2022/08/15 03:47:17;;;;;;;9.40;7.80;;;;;;;;;;4987368;28;20750;-60
2022/08/15 03:49:43;;;;;;;9.50;8.05;;;;;;;;;;4983267;28;20209;-60
2022/08/15 03:52:08;;;;;;;9.93;7.80;;;;;;;;;;4981490;28;20228;-60
2022/08/15 03:54:35;;;;;;;9.63;7.30;;;;;;;;;;4995219;28;20240;-60
2022/08/15 03:57:00;;;;;;;8.23;6.80;;;;;;;;;;4994635;28;20262;-60
2022/08/15 03:59:25;;;;;;;9.05;7.63;;;;;;;;;;4993148;28;20735;-60
2022/08/15 04:01:51;;;;;;;10.77;7.60;;;;;;;;;;5001376;28;20299;-60
2022/08/15 04:04:17;;;;;;;8.05;7.22;;;;;;;;;;5002244;28;20239;-60
2022/08/15 04:06:42;;;;;;;8.27;7.40;;;;;;;;;;5002085;28;20267;-60
2022/08/15 04:09:08;;;;;;;9.32;7.82;;;;;;;;;;5001929;28;20244;-61
2022/08/15 04:11:33;;;;;;;8.25;7.13;;;;;;;;;;5002452;28;20333;-60
2022/08/15 04:13:59;;;;;;;8.63;7.50;;;;;;;;;;5001766;28;20323;-60
2022/08/15 04:16:25;;;;;;;9.38;7.15;;;;;;;;;;4996360;28;20216;-60
2022/08/15 04:18:50;;;;;;;9.55;8.15;;;;;;;;;;4985764;28;20217;-60
2022/08/15 04:21:16;;;;;;;8.90;7.97;;;;;;;;;;4975064;28;20291;-60
2022/08/15 04:23:42;;;;;;;11.15;8.60;;;;;;;;;;4999673;28;20232;-60
2022/08/15 04:26:07;;;;;;;11.20;8.25;;;;;;;;;;5000349;28;20212;-61
2022/08/15 04:28:33;;;;;;;9.50;8.20;;;;;;;;;;5000220;28;20216;-60
2022/08/15 04:30:59;;;;;;;9.15;8.23;;;;;;;;;;5002079;28;20201;-60
2022/08/15 04:33:25;;;;;;;8.80;7.90;;;;;;;;;;5001345;28;20220;-60
2022/08/15 04:35:52;;;;;;;10.60;8.65;;;;;;;;;;4999985;28;20212;-60
2022/08/15 04:38:17;;;;;;;9.10;8.18;;;;;;;;;;4978993;28;20221;-60
2022/08/15 04:40:43;;;;;;;11.38;7.97;;;;;;;;;;4993177;28;20204;-60
2022/08/15 04:43:10;;;;;;;9.75;8.45;;;;;;;;;;5031191;28;20649;-61
2022/08/15 04:45:35;;;;;;;11.60;9.63;;;;;;;;;;5028886;28;20576;-60
2022/08/15 04:48:06;;;;;;;10.33;9.10;;;;;;;;;;5010195;28;20435;-62
2022/08/15 04:50:33;;;;;;;9.57;8.32;;;;;;;;;;5012003;28;20251;-60
2022/08/15 04:52:59;;;;;;;10.57;8.35;;;;;;;;;;5012641;28;20414;-61
2022/08/15 04:55:24;;;;;;;11.40;7.78;;;;;;;;;;5009967;28;20219;-61
2022/08/15 04:57:51;;;;;;;10.82;8.20;;;;;;;;;;5011411;28;20221;-61
2022/08/15 05:00:18;;;;;;;10.63;8.02;;;;;;;;;;5006845;28;20228;-60
2022/08/15 05:02:56;;;;;;;10.20;7.90;;;;;;;;;;5010524;28;20204;-61
2022/08/15 05:05:21;;;;;;;9.15;8.07;;;;;;;;;;5009553;28;20216;-61
2022/08/15 05:07:46;;;;;;;9.35;8.35;;;;;;;;;;5010902;28;20231;-60
2022/08/15 05:10:12;;;;;;;12.07;8.93;;;;;;;;;;5009791;28;20271;-60
2022/08/15 05:12:37;;;;;;;9.60;8.60;;;;;;;;;;5010149;28;20214;-60
2022/08/15 05:15:02;;;;;;;10.68;9.10;;;;;;;;;;5010285;28;20224;-60
2022/08/15 05:17:28;;;;;;;11.60;10.00;;;;;;;;;;5010084;28;20415;-60
2022/08/15 05:19:53;;;;;;;12.32;9.50;;;;;;;;;;5012953;28;20219;-60
2022/08/15 05:22:19;;;;;;;14.80;13.30;;;;;;;;;;5015875;28;20205;-60
2022/08/15 05:24:44;;;;;;;18.50;16.33;;;;;;;;;;5019245;28;20228;-60
2022/08/15 05:27:09;;;;;;;20.07;17.97;;;;;;;;;;5023196;28;20422;-60
2022/08/15 05:29:35;;;;;;;19.80;16.73;;;;;;;;;;5025595;28;20212;-60
2022/08/15 05:32:00;;;;;;;18.05;13.73;;;;;;;;;;5023086;28;20275;-60
2022/08/15 05:34:28;;;;;;;13.10;11.70;;;;;;;;;;5024085;28;20611;-59
2022/08/15 05:36:53;;;;;;;14.00;11.98;;;;;;;;;;5034023;28;20571;-59
2022/08/15 05:39:21;;;;;;;13.85;11.02;;;;;;;;;;5014564;28;20232;-59
2022/08/15 05:41:48;;;;;;;16.33;12.10;;;;;;;;;;5017076;28;20750;-59
2022/08/15 05:44:16;;;;;;;15.82;11.05;;;;;;;;;;5022006;28;20216;-59
2022/08/15 05:46:46;;;;;;;12.93;11.32;;;;;;;;;;5023710;28;20207;-60
2022/08/15 05:49:18;;;;;;;17.48;11.93;;;;;;;;;;5018435;28;20203;-59
2022/08/15 05:51:46;;;;;;;17.38;12.57;;;;;;;;;;5019790;28;20205;-59
2022/08/15 05:54:20;;;;;;;17.75;12.48;;;;;;;;;;5018764;28;20668;-60
2022/08/15 05:56:49;;;;;;;17.48;12.25;;;;;;;;;;5021747;28;20210;-59
2022/08/15 05:59:15;;;;;;;18.80;12.73;;;;;;;;;;5021932;28;20683;-60
2022/08/15 06:01:41;;;;;;;16.08;12.35;;;;;;;;;;5021628;28;20303;-59
2022/08/15 06:04:09;;;;;;;15.85;12.90;;;;;;;;;;5020163;28;20219;-60
2022/08/15 06:06:35;;;;;;;13.77;11.38;;;;;;;;;;5021549;28;20594;-59
2022/08/15 06:09:04;;;;;;;15.57;11.60;;;;;;;;;;5024791;28;20224;-59
2022/08/15 06:11:32;;;;;;;13.40;10.65;;;;;;;;;;5021615;28;20260;-59
2022/08/15 06:13:59;;;;;;;12.82;10.18;;;;;;;;;;5022217;28;20204;-59
2022/08/15 06:16:32;;;;;;;14.23;9.80;;;;;;;;;;5013287;28;20346;-60
2022/08/15 06:18:58;;;;;;;13.43;9.60;;;;;;;;;;5011860;28;20739;-60
2022/08/15 06:21:30;;;;;;;13.90;9.18;;;;;;;;;;5011625;28;20208;-60
2022/08/15 06:23:57;;;;;;;11.93;7.63;;;;;;;;;;5014209;28;20216;-60
2022/08/15 06:26:41;;;;;;;11.48;7.85;;;;;;;;;;5013180;28;20216;-60
2022/08/15 06:29:16;;;;;;;11.82;7.15;;;;;;;;;;5014035;28;20216;-60
2022/08/15 06:31:44;;;;;;;12.25;6.85;;;;;;;;;;5012902;28;20232;-60
2022/08/15 06:34:10;;;;;;;10.93;7.28;;;;;;;;;;5010951;28;20209;-60
2022/08/15 06:36:38;;;;;;;12.23;6.30;;;;;;;;;;5013785;28;20227;-60
2022/08/15 06:39:06;;;;;;;9.30;5.90;;;;;;;;;;5013561;28;20212;-60
2022/08/15 06:41:33;;;;;;;9.52;5.60;;;;;;;;;;5012892;28;20212;-60
2022/08/15 06:43:59;;;;;;;11.20;5.03;;;;;;;;;;5013941;28;20260;-60
2022/08/15 06:46:27;;;;;;;10.95;5.00;;;;;;;;;;5013503;28;20622;-60
2022/08/15 06:48:52;;;;;;;8.30;4.50;;;;;;;;;;5011915;28;20226;-60
2022/08/15 06:51:18;;;;;;;9.38;4.72;;;;;;;;;;5011618;28;20200;-60
2022/08/15 06:53:46;;;;;;;7.20;4.70;;;;;;;;;;5012689;28;20213;-60
2022/08/15 06:56:19;;;;;;;12.52;4.18;;;;;;;;;;5012470;28;20216;-60
2022/08/15 06:58:47;;;;;;;8.18;3.75;;;;;;;;;;5012526;28;20213;-60
2022/08/15 07:01:22;;;;;;;9.93;3.63;;;;;;;;;;5012004;28;20260;-60
2022/08/15 07:03:51;;;;;;;7.18;4.10;;;;;;;;;;5013546;28;20216;-60
2022/08/15 07:06:17;;;;;;;10.48;4.03;;;;;;;;;;5011822;28;20217;-60
2022/08/15 07:08:49;;;;;;;11.18;3.70;;;;;;;;;;5012495;28;20751;-60
2022/08/15 07:11:17;;;;;;;9.85;3.60;;;;;;;;;;5013026;28;20215;-60
2022/08/15 07:13:44;;;;;;;8.30;3.50;;;;;;;;;;5013194;28;20254;-60
2022/08/15 07:16:19;;;;;;;9.73;3.80;;;;;;;;;;5012376;28;20270;-60
2022/08/15 07:18:47;;;;;;;4.70;3.10;;;;;;;;;;5011823;28;20282;-60
2022/08/15 07:21:14;;;;;;;10.00;3.47;;;;;;;;;;5012633;28;20240;-60
2022/08/15 07:23:58;;;;;;;10.52;3.35;;;;;;;;;;5012424;28;20220;-60
2022/08/15 07:26:24;;;;;;;8.35;2.70;;;;;;;;;;5012792;28;20216;-60
2022/08/15 07:28:49;;;;;;;5.70;3.00;;;;;;;;;;5011656;28;20200;-60
2022/08/15 07:31:17;;;;;;;7.65;2.50;;;;;;;;;;5011881;28;20274;-60
2022/08/15 07:33:44;;;;;;;9.80;2.88;;;;;;;;;;5011733;28;20699;-60
2022/08/15 07:36:19;;;;;;;10.57;3.22;;;;;;;;;;5012429;28;20702;-61
2022/08/15 07:38:45;;;;;;;12.77;3.60;;;;;;;;;;5011996;28;20687;-60
2022/08/15 07:41:26;;;;;;;9.32;3.00;;;;;;;;;;5012221;28;20216;-60
2022/08/15 07:43:59;;;;;;;6.63;3.00;;;;;;;;;;5011693;28;20232;-60
2022/08/15 07:46:44;;;;;;;10.70;3.40;;;;;;;;;;5012292;28;20310;-60
2022/08/15 07:49:15;;;;;;;8.73;3.20;;;;;;;;;;5012185;28;20219;-60
2022/08/15 07:51:42;;;;;;;7.40;3.08;;;;;;;;;;5010495;28;20608;-60
2022/08/15 07:54:22;;;;;;;8.15;2.80;;;;;;;;;;5012376;28;20222;-60
2022/08/15 07:56:49;;;;;;;9.27;2.90;;;;;;;;;;5011402;28;20294;-60
2022/08/15 07:59:25;;;;;;;5.97;3.00;;;;;;;;;;5011365;28;20209;-60
2022/08/15 08:01:51;;;;;;;7.03;3.10;;;;;;;;;;5012598;28;20701;-60
2022/08/15 08:04:24;;;;;;;7.40;3.00;;;;;;;;;;5010897;28;20295;-60
2022/08/15 08:06:52;;;;;;;6.85;2.95;;;;;;;;;;5011692;28;20221;-60
2022/08/15 08:09:20;;;;;;;10.07;2.88;;;;;;;;;;5010636;28;20224;-60
2022/08/15 08:11:48;;;;;;;8.18;2.80;;;;;;;;;;5011561;28;20705;-60
2022/08/15 08:14:15;;;;;;;7.53;3.00;;;;;;;;;;5011889;28;20220;-60
2022/08/15 08:16:44;;;;;;;6.28;2.65;;;;;;;;;;5011249;28;20219;-60
2022/08/15 08:19:22;;;;;;;7.72;2.80;;;;;;;;;;5009842;28;20212;-61
2022/08/15 08:21:50;;;;;;;8.63;3.22;;;;;;;;;;5011064;28;20212;-60
2022/08/15 08:24:22;;;;;;;7.22;2.90;;;;;;;;;;5010326;28;20225;-60
2022/08/15 08:26:51;;;;;;;6.03;3.08;;;;;;;;;;5011677;28;20208;-59
2022/08/15 08:29:35;;;;;;;8.10;3.10;;;;;;;;;;5010503;28;20212;-60
2022/08/15 08:32:06;;;;;;;7.85;3.10;;;;;;;;;;5010731;28;20215;-60
2022/08/15 08:34:34;;;;;;;5.45;3.30;;;;;;;;;;5010341;28;20290;-60
2022/08/15 08:37:03;;;;;;;6.78;3.28;;;;;;;;;;5010855;28;20212;-60
2022/08/15 08:39:42;;;;;;;9.40;3.70;;;;;;;;;;5010398;28;20235;-60
2022/08/15 08:42:07;;;;;;;7.40;3.40;;;;;;;;;;5009738;28;20223;-60
2022/08/15 08:44:37;;;;;;;6.30;3.47;;;;;;;;;;5011962;28;20271;-65
2022/08/15 08:47:10;;;;;;;9.10;3.42;;;;;;;;;;5011027;28;20351;-65
2022/08/15 08:49:39;;;;;;;7.57;3.50;;;;;;;;;;5012082;28;20208;-64
2022/08/15 08:52:04;;;;;;;7.60;3.67;;;;;;;;;;5011731;28;20220;-64
2022/08/15 08:54:35;;;;;;;8.43;3.53;;;;;;;;;;5011160;28;20201;-64
2022/08/15 08:57:00;;;;;;;9.90;3.42;;;;;;;;;;5014701;28;20216;-64
2022/08/15 08:59:31;;;;;;;8.70;3.47;;;;;;;;;;5014226;28;20215;-64
2022/08/15 09:01:59;;;;;;;5.97;3.35;;;;;;;;;;5013780;28;20219;-64
2022/08/15 09:04:29;;;;;;;7.50;3.50;;;;;;;;;;5015143;28;20560;-64
2022/08/15 09:06:55;;;;;;;7.07;4.00;;;;;;;;;;5015714;28;20219;-64
2022/08/15 09:09:22;;;;;;;8.65;3.83;;;;;;;;;;5012769;28;20228;-65
2022/08/15 09:11:49;;;;;;;6.60;3.83;;;;;;;;;;5014599;28;20209;-65
2022/08/15 09:14:27;;;;;;;11.20;4.00;;;;;;;;;;5025217;28;20208;-65
2022/08/15 09:16:53;;;;;;;7.07;3.70;;;;;;;;;;5029640;28;20342;-62
2022/08/15 09:19:21;;;;;;;10.35;4.55;;;;;;;;;;5035053;28;20294;-61
2022/08/15 09:21:47;;;;;;;8.60;4.07;;;;;;;;;;5033864;28;20204;-61
2022/08/15 09:24:12;;;;;;;8.82;4.38;;;;;;;;;;5034158;28;20230;-62
2022/08/15 09:26:46;;;;;;;7.72;4.28;;;;;;;;;;5035151;28;20215;-61
2022/08/15 09:29:14;;;;;;;8.45;5.07;;;;;;;;;;5033767;28;20668;-62
2022/08/15 09:31:39;;;;;;;13.45;5.20;;;;;;;;;;5033568;28;20621;-61
2022/08/15 09:34:16;;;;;;;11.85;5.65;;;;;;;;;;5033572;28;20208;-61
2022/08/15 09:36:50;;;;;;;9.45;5.72;;;;;;;;;;5032776;28;20231;-61
2022/08/15 09:39:23;;;;;;;12.30;6.07;;;;;;;;;;5017067;28;20216;-65
2022/08/15 09:41:51;;;;;;;17.50;6.35;;;;;;;;;;5013747;28;20211;-64
2022/08/15 09:44:20;;;;;;;13.90;5.85;;;;;;;;;;5013821;28;20243;-64
2022/08/15 09:46:50;;;;;;;12.25;6.60;;;;;;;;;;5014911;28;20213;-64
2022/08/15 09:49:19;;;;;;;13.90;7.25;;;;;;;;;;5013462;28;20212;-64
2022/08/15 09:51:47;;;;;;;11.20;6.25;;;;;;;;;;5012618;28;20263;-64
2022/08/15 09:54:15;;;;;;;11.52;6.10;;;;;;;;;;5014263;28;20699;-64
2022/08/15 09:56:41;;;;;;;11.60;6.82;;;;;;;;;;5014936;28;20216;-64
2022/08/15 09:59:09;;;;;;;10.75;6.00;;;;;;;;;;5013649;28;20275;-64
2022/08/15 10:01:42;;;;;;;11.60;6.65;;;;;;;;;;5013247;28;20216;-64
2022/08/15 10:04:08;;;;;;;10.00;5.80;;;;;;;;;;5014441;28;20294;-64
2022/08/15 10:06:51;;;;;;;11.45;5.82;;;;;;;;;;5014001;28;20640;-64
2022/08/15 10:09:20;;;;;;;9.60;5.50;;;;;;;;;;5013148;28;20228;-65
2022/08/15 10:11:46;;;;;;;11.23;5.68;;;;;;;;;;5013836;28;20204;-64
2022/08/15 10:14:19;;;;;;;8.02;5.18;;;;;;;;;;5014147;28;20225;-65
2022/08/15 10:16:46;;;;;;;10.32;4.60;;;;;;;;;;5014509;28;20212;-64
2022/08/15 10:19:25;;;;;;;8.07;4.70;;;;;;;;;;5013316;28;20238;-65
2022/08/15 10:21:51;;;;;;;7.97;4.95;;;;;;;;;;5014273;28;20679;-65
2022/08/15 10:24:24;;;;;;;8.85;4.40;;;;;;;;;;5013833;28;20232;-64
2022/08/15 10:27:08;;;;;;;8.13;4.55;;;;;;;;;;5013554;28;20679;-64
2022/08/15 10:29:40;;;;;;;10.57;4.60;;;;;;;;;;5014259;28;20295;-65
2022/08/15 10:32:06;;;;;;;11.45;5.10;;;;;;;;;;5014065;28;20303;-65
2022/08/15 10:34:37;;;;;;;11.55;5.50;;;;;;;;;;5012240;28;20288;-65
2022/08/15 10:37:09;;;;;;;8.30;5.45;;;;;;;;;;5013845;28;20216;-65
2022/08/15 10:39:38;;;;;;;10.15;5.78;;;;;;;;;;4992423;28;20622;-64
2022/08/15 10:42:19;;;;;;;11.10;6.43;;;;;;;;;;4993782;28;20213;-65
2022/08/15 10:44:57;;;;;;;10.48;6.55;;;;;;;;;;4994145;28;20213;-65
2022/08/15 10:47:25;;;;;;;10.68;6.60;;;;;;;;;;5008706;28;20208;-65
2022/08/15 10:49:58;;;;;;;13.68;6.50;;;;;;;;;;5012473;28;20236;-65
2022/08/15 10:52:26;;;;;;;18.58;6.60;;;;;;;;;;5011637;28;20667;-64
2022/08/15 10:54:57;;;;;;;11.48;6.95;;;;;;;;;;5013093;28;20220;-65
2022/08/15 10:57:23;;;;;;;15.73;7.15;;;;;;;;;;5013240;28;20213;-65
2022/08/15 10:59:50;;;;;;;10.75;7.22;;;;;;;;;;5013870;28;20699;-65
2022/08/15 11:02:17;;;;;;;12.35;7.00;;;;;;;;;;5012342;28;20295;-65
2022/08/15 11:04:42;;;;;;;13.80;6.60;;;;;;;;;;5013722;28;20319;-65
2022/08/15 11:07:16;;;;;;;11.32;7.50;;;;;;;;;;5013211;28;20208;-65
2022/08/15 11:09:41;;;;;;;10.30;6.85;;;;;;;;;;5012554;28;20634;-64
2022/08/15 11:12:08;;;;;;;12.13;6.95;;;;;;;;;;5012999;28;20217;-65
2022/08/15 11:14:38;;;;;;;11.15;6.78;;;;;;;;;;5012512;28;20209;-64
2022/08/15 11:17:04;;;;;;;13.32;7.20;;;;;;;;;;5011653;28;20695;-65
2022/08/15 11:19:30;;;;;;;13.25;7.40;;;;;;;;;;5011842;28;20208;-64
2022/08/15 11:21:57;;;;;;;9.50;6.70;;;;;;;;;;5012491;28;20626;-64
2022/08/15 11:24:24;;;;;;;11.38;7.80;;;;;;;;;;5011469;28;20217;-64
2022/08/15 11:26:49;;;;;;;14.68;8.60;;;;;;;;;;5013092;28;20679;-64
2022/08/15 11:29:17;;;;;;;14.65;8.40;;;;;;;;;;5011982;28;20209;-64
2022/08/15 11:31:43;;;;;;;16.35;9.48;;;;;;;;;;5013193;28;20555;-63
2022/08/15 11:34:17;;;;;;;11.57;7.88;;;;;;;;;;5012658;28;20213;-64
2022/08/15 11:36:42;;;;;;;13.82;9.13;;;;;;;;;;5012324;28;20254;-64
2022/08/15 11:39:13;;;;;;;14.05;8.80;;;;;;;;;;5011101;28;20212;-64
2022/08/15 11:41:39;;;;;;;16.38;9.70;;;;;;;;;;5012818;28;20219;-63
2022/08/15 11:44:05;;;;;;;14.25;8.50;;;;;;;;;;5011375;28;20220;-63
2022/08/15 11:46:32;;;;;;;14.80;8.52;;;;;;;;;;5012728;28;20682;-64
2022/08/15 11:49:04;;;;;;;17.00;9.10;;;;;;;;;;5012916;28;20743;-63
2022/08/15 11:51:33;;;;;;;12.05;8.95;;;;;;;;;;5011501;28;20209;-63
2022/08/15 11:54:04;;;;;;;16.33;8.50;;;;;;;;;;5012537;28;20679;-64
2022/08/15 11:56:44;;;;;;;11.45;7.88;;;;;;;;;;5012196;28;20216;-63
2022/08/15 11:59:12;;;;;;;11.57;8.02;;;;;;;;;;5012099;28;20211;-63
2022/08/15 12:01:37;;;;;;;14.48;8.27;;;;;;;;;;5012450;28;20212;-64
2022/08/15 12:04:04;;;;;;;11.48;7.82;;;;;;;;;;5011356;28;20247;-63
2022/08/15 12:06:33;;;;;;;11.20;7.72;;;;;;;;;;5012509;28;20570;-61
2022/08/15 12:09:05;;;;;;;13.45;9.10;;;;;;;;;;5012280;28;20287;-62
2022/08/15 12:11:30;;;;;;;13.52;7.80;;;;;;;;;;5010105;28;20295;-62
2022/08/15 12:13:57;;;;;;;11.48;7.88;;;;;;;;;;5012214;28;20300;-62
2022/08/15 12:16:31;;;;;;;14.20;9.23;;;;;;;;;;5010810;28;20212;-62
2022/08/15 12:18:57;;;;;;;13.30;9.40;;;;;;;;;;5006492;28;20263;-62
2022/08/15 12:21:24;;;;;;;15.70;9.85;;;;;;;;;;5010643;28;20209;-62
2022/08/15 12:23:57;;;;;;;16.95;8.60;;;;;;;;;;5025936;28;20266;-62
2022/08/15 12:26:24;;;;;;;12.20;8.43;;;;;;;;;;5030737;28;20265;-62
2022/08/15 12:28:50;;;;;;;16.27;9.30;;;;;;;;;;5031862;28;20208;-62
2022/08/15 12:31:20;;;;;;;14.30;8.80;;;;;;;;;;5034638;28;20215;-62
2022/08/15 12:33:45;;;;;;;12.35;8.32;;;;;;;;;;5037343;28;20349;-62
2022/08/15 12:36:11;;;;;;;16.45;9.07;;;;;;;;;;5037252;28;20268;-62
2022/08/15 12:38:37;;;;;;;17.13;9.73;;;;;;;;;;5026448;28;20212;-61
2022/08/15 12:41:02;;;;;;;12.65;8.75;;;;;;;;;;5017567;28;20683;-62
2022/08/15 12:43:28;;;;;;;15.85;9.02;;;;;;;;;;5018578;28;20310;-62
2022/08/15 12:45:53;;;;;;;12.07;9.38;;;;;;;;;;5018584;28;20259;-63
2022/08/15 12:48:21;;;;;;;10.80;8.60;;;;;;;;;;5024821;28;20674;-62
2022/08/15 12:50:46;;;;;;;13.80;8.55;;;;;;;;;;5030955;28;20212;-61
2022/08/15 12:53:12;;;;;;;17.58;9.90;;;;;;;;;;5017595;28;20629;-62
2022/08/15 12:55:39;;;;;;;14.75;9.57;;;;;;;;;;5018582;28;20203;-61
2022/08/15 12:58:05;;;;;;;12.85;9.85;;;;;;;;;;5018360;28;20220;-62
2022/08/15 13:00:31;;;;;;;12.50;9.52;;;;;;;;;;5017676;28;20212;-62
2022/08/15 13:02:58;;;;;;;12.07;10.13;;;;;;;;;;5002147;28;20270;-61
2022/08/15 13:05:30;;;;;;;13.02;8.80;;;;;;;;;;4995800;28;20251;-62
2022/08/15 13:07:55;;;;;;;17.20;9.32;;;;;;;;;;4990944;28;20213;-62
2022/08/15 13:10:21;;;;;;;13.45;8.40;;;;;;;;;;4986906;28;20227;-62
2022/08/15 13:12:46;;;;;;;12.07;9.00;;;;;;;;;;4993592;28;20201;-62
2022/08/15 13:15:12;;;;;;;13.52;8.70;;;;;;;;;;4991477;28;20660;-62
2022/08/15 13:17:37;;;;;;;12.80;8.07;;;;;;;;;;4993142;28;20690;-62
2022/08/15 13:25:31;;;;;;;11.85;7.40;;;;;;;;;;4990221;28;20648;-62
2022/08/15 13:27:56;;;;;;;12.00;8.15;;;;;;;;;;4985389;28;20209;-62
2022/08/15 13:30:22;;;;;;;12.82;8.23;;;;;;;;;;4983308;28;20213;-61
2022/08/15 13:32:47;;;;;;;14.13;8.32;;;;;;;;;;4986409;28;20209;-61
2022/08/15 13:35:15;;;;;;;10.57;7.13;;;;;;;;;;5010352;28;20605;-61
2022/08/15 13:37:40;;;;;;;12.57;8.10;;;;;;;;;;5001070;28;20263;-62
2022/08/15 13:40:06;;;;;;;12.25;8.00;;;;;;;;;;4992449;28;20225;-62
2022/08/15 13:42:31;;;;;;;11.70;7.53;;;;;;;;;;5007419;28;20714;-60
2022/08/15 13:44:57;;;;;;;11.60;7.28;;;;;;;;;;5002857;28;20235;-61
2022/08/15 13:47:23;;;;;;;12.45;7.88;;;;;;;;;;4993243;28;20613;-62
2022/08/15 13:49:48;;;;;;;10.25;8.07;;;;;;;;;;4981938;28;20668;-61
2022/08/15 13:52:14;;;;;;;13.27;7.70;;;;;;;;;;4981275;28;20471;-61
2022/08/15 13:54:40;;;;;;;12.85;8.18;;;;;;;;;;4981421;28;20279;-61
2022/08/15 13:57:05;;;;;;;12.23;7.85;;;;;;;;;;4987722;28;20209;-61
2022/08/15 13:59:32;;;;;;;10.90;7.10;;;;;;;;;;4989547;28;20213;-61
2022/08/15 14:01:57;;;;;;;11.88;7.78;;;;;;;;;;4989124;28;20249;-61
2022/08/15 14:04:25;;;;;;;12.30;7.63;;;;;;;;;;5004644;28;20763;-61
2022/08/15 14:06:52;;;;;;;14.10;7.13;;;;;;;;;;5008322;28;20294;-61
2022/08/15 14:09:18;;;;;;;14.00;8.07;;;;;;;;;;4989602;28;20225;-61
2022/08/15 14:11:43;;;;;;;10.80;7.90;;;;;;;;;;4992252;28;20516;-62
2022/08/15 14:14:10;;;;;;;11.68;7.45;;;;;;;;;;4983122;28;20220;-61
2022/08/15 14:16:37;;;;;;;11.02;7.22;;;;;;;;;;4980834;28;20257;-61
2022/08/15 14:19:03;;;;;;;11.18;7.72;;;;;;;;;;5002113;28;20291;-62
2022/08/15 14:21:28;;;;;;;13.57;6.80;;;;;;;;;;5007631;28;20759;-62
2022/08/15 14:23:55;;;;;;;10.18;6.35;;;;;;;;;;5007699;28;20229;-61
2022/08/15 14:26:23;;;;;;;10.25;5.93;;;;;;;;;;5005634;28;20234;-62
2022/08/15 14:28:49;;;;;;;10.27;6.70;;;;;;;;;;4993754;28;20228;-61
2022/08/15 14:31:15;;;;;;;14.50;6.53;;;;;;;;;;4988252;28;20221;-61
2022/08/15 14:33:41;;;;;;;10.82;6.03;;;;;;;;;;4984855;28;20962;-62
2022/08/15 14:36:07;;;;;;;8.32;5.85;;;;;;;;;;4999207;28;20246;-61
2022/08/15 14:38:32;;;;;;;10.57;6.18;;;;;;;;;;4992091;28;20307;-61
2022/08/15 14:40:57;;;;;;;9.73;5.18;;;;;;;;;;5000831;28;20220;-61
2022/08/15 14:43:23;;;;;;;11.38;6.00;;;;;;;;;;5006900;28;20258;-61